Time;durP1;ratioP1;P1;durP2;ratioP2;P2;SDS_P1;SDS_P2;PMS_P1;PMS_P2;Temp;Humidity;BMP_temperature;BMP_pressure;BME280_temperature;BME280_humidity;BME280_pressure;Samples;Min_cycle;Max_cycle;Signal;HPM_P1;HPM_P2
2020/12/10 00:00:12;;;;;;;3.40;2.50;;;18.90;24.20;;;;;;5074725;28;20166;-56
2020/12/10 00:02:38;;;;;;;2.90;2.70;;;18.90;24.30;;;;;;5074426;28;20198;-56
2020/12/10 00:05:07;;;;;;;2.78;2.58;;;18.90;24.20;;;;;;5073920;28;20280;-56
2020/12/10 00:07:33;;;;;;;2.40;2.20;;;18.90;24.20;;;;;;5074585;28;20147;-56
2020/12/10 00:09:59;;;;;;;2.50;2.30;;;18.90;24.30;;;;;;5074481;28;20158;-56
2020/12/10 00:12:25;;;;;;;3.33;2.50;;;18.90;24.20;;;;;;5074579;28;20522;-56
2020/12/10 00:14:53;;;;;;;2.63;2.43;;;18.90;24.20;;;;;;5074288;28;20162;-54
2020/12/10 00:17:27;;;;;;;2.30;2.20;;;18.90;24.20;;;;;;5074308;28;20196;-54
2020/12/10 00:19:54;;;;;;;2.35;2.20;;;18.90;24.20;;;;;;5073774;28;20183;-54
2020/12/10 00:22:20;;;;;;;2.60;2.30;;;19.00;24.30;;;;;;5074265;28;20186;-54
2020/12/10 00:24:47;;;;;;;3.30;2.30;;;18.90;24.20;;;;;;5074152;28;20151;-53
2020/12/10 00:27:14;;;;;;;2.80;2.60;;;18.90;24.20;;;;;;5074217;28;20178;-54
2020/12/10 00:29:40;;;;;;;2.60;2.40;;;18.90;24.20;;;;;;5074045;28;20159;-54
2020/12/10 00:32:08;;;;;;;2.00;1.90;;;18.90;24.20;;;;;;5074125;28;20166;-54
2020/12/10 00:34:34;;;;;;;2.85;2.53;;;18.90;24.20;;;;;;5073655;28;20167;-54
2020/12/10 00:37:00;;;;;;;2.40;2.15;;;18.90;24.80;;;;;;5073872;28;20192;-54
2020/12/10 00:39:26;;;;;;;2.90;2.30;;;18.90;24.20;;;;;;5073751;28;20167;-54
2020/12/10 00:41:54;;;;;;;3.07;2.87;;;18.90;24.20;;;;;;5073871;28;20538;-54
2020/12/10 00:44:20;;;;;;;3.13;2.83;;;18.90;24.20;;;;;;5073816;28;20245;-54
2020/12/10 00:46:46;;;;;;;2.10;2.00;;;18.90;24.20;;;;;;5073846;28;20245;-54
2020/12/10 00:49:11;;;;;;;4.03;2.90;;;18.90;24.20;;;;;;5073841;28;20239;-56
2020/12/10 00:51:37;;;;;;;2.50;2.30;;;18.90;24.20;;;;;;5073274;28;20163;-56
2020/12/10 00:54:03;;;;;;;5.03;2.50;;;18.90;24.20;;;;;;5073302;28;20173;-55
2020/12/10 00:56:34;;;;;;;2.67;2.47;;;18.90;24.20;;;;;;5048735;28;20189;-56
2020/12/10 00:59:00;;;;;;;2.13;1.95;;;18.90;24.20;;;;;;5073929;28;20165;-56
2020/12/10 01:01:26;;;;;;;2.80;2.60;;;20.10;25.10;;;;;;5073574;28;20182;-55
2020/12/10 01:03:51;;;;;;;2.13;1.93;;;18.90;24.20;;;;;;5073749;28;20166;-56
2020/12/10 01:06:17;;;;;;;2.80;2.60;;;18.90;24.30;;;;;;5077231;28;20226;-55
2020/12/10 01:08:45;;;;;;;2.73;2.53;;;18.90;24.20;;;;;;5073227;28;20669;-56
2020/12/10 01:11:11;;;;;;;2.95;2.30;;;18.90;24.20;;;;;;5073679;28;20631;-55
2020/12/10 01:13:37;;;;;;;2.45;2.25;;;18.90;24.30;;;;;;5073514;28;20198;-54
2020/12/10 01:16:03;;;;;;;2.37;2.17;;;18.90;24.30;;;;;;5073499;28;20158;-54
2020/12/10 01:18:28;;;;;;;3.40;2.27;;;18.90;24.30;;;;;;5073439;28;20242;-54
2020/12/10 01:20:54;;;;;;;2.40;2.20;;;18.90;24.20;;;;;;5073134;28;20405;-54
2020/12/10 01:23:21;;;;;;;2.40;2.20;;;18.90;24.30;;;;;;5055433;28;20209;-54
2020/12/10 01:25:46;;;;;;;2.55;2.30;;;18.90;24.30;;;;;;5073415;28;20188;-53
2020/12/10 01:28:15;;;;;;;2.50;2.30;;;18.90;24.30;;;;;;5073502;28;20210;-53
2020/12/10 01:30:41;;;;;;;2.35;2.15;;;18.90;24.30;;;;;;5073310;28;20154;-54
2020/12/10 01:33:06;;;;;;;2.57;2.37;;;18.90;24.30;;;;;;5073516;28;20491;-53
2020/12/10 01:35:32;;;;;;;2.33;2.13;;;18.90;24.30;;;;;;5072931;28;20614;-53
2020/12/10 01:37:57;;;;;;;2.80;2.60;;;18.90;24.30;;;;;;5073381;28;20664;-53
2020/12/10 01:40:23;;;;;;;3.87;2.50;;;18.90;24.30;;;;;;5073170;28;20191;-54
2020/12/10 01:42:49;;;;;;;1.93;1.83;;;18.90;24.30;;;;;;5073361;28;20194;-54
2020/12/10 01:45:14;;;;;;;2.47;2.27;;;18.90;24.30;;;;;;5073169;28;20225;-54
2020/12/10 01:47:42;;;;;;;2.47;2.27;;;18.90;24.30;;;;;;5073363;28;20516;-53
2020/12/10 01:50:08;;;;;;;2.60;2.40;;;18.90;24.30;;;;;;5073186;28;20143;-54
2020/12/10 01:52:34;;;;;;;2.83;2.60;;;18.90;24.30;;;;;;5072545;28;20180;-54
2020/12/10 01:55:00;;;;;;;2.40;2.20;;;18.80;24.20;;;;;;5074055;28;20155;-54
2020/12/10 01:57:29;;;;;;;2.60;2.40;;;18.90;24.30;;;;;;5093418;28;20601;-54
2020/12/10 01:59:55;;;;;;;5.70;2.58;;;18.90;24.30;;;;;;5093506;28;20404;-54
2020/12/10 02:02:21;;;;;;;2.60;2.40;;;18.80;24.20;;;;;;5093163;28;20189;-54
2020/12/10 02:04:47;;;;;;;2.80;2.30;;;18.80;24.20;;;;;;5093257;28;20173;-54
2020/12/10 02:07:15;;;;;;;2.63;2.43;;;18.80;24.20;;;;;;5094443;28;20494;-54
2020/12/10 02:09:42;;;;;;;2.85;2.58;;;18.80;24.30;;;;;;5097045;28;20150;-54
2020/12/10 02:12:08;;;;;;;2.70;2.50;;;18.80;24.30;;;;;;5097169;28;20157;-54
2020/12/10 02:14:36;;;;;;;2.63;2.40;;;18.80;24.20;;;;;;5079056;28;20158;-53
2020/12/10 02:17:03;;;;;;;3.97;3.20;;;18.80;24.20;;;;;;5096831;28;20379;-54
2020/12/10 02:19:29;;;;;;;2.42;2.22;;;18.80;24.30;;;;;;5096873;28;20258;-53
2020/12/10 02:21:55;;;;;;;1.70;1.60;;;18.80;24.20;;;;;;5096220;28;20280;-53
2020/12/10 02:24:21;;;;;;;2.40;2.20;;;18.80;24.20;;;;;;5096961;28;20399;-53
2020/12/10 02:26:47;;;;;;;2.40;2.25;;;18.80;24.20;;;;;;5096714;28;20597;-54
2020/12/10 02:29:16;;;;;;;2.03;1.83;;;18.80;24.20;;;;;;5096679;28;20198;-54
2020/12/10 02:31:43;;;;;;;1.98;1.88;;;18.80;24.20;;;;;;5096601;28;20404;-54
2020/12/10 02:34:09;;;;;;;2.50;2.30;;;18.80;24.20;;;;;;5096630;28;20279;-54
2020/12/10 02:36:36;;;;;;;2.90;2.28;;;18.80;24.20;;;;;;5095790;28;20165;-54
2020/12/10 02:39:04;;;;;;;2.00;1.80;;;18.80;24.20;;;;;;5096603;28;20189;-54
2020/12/10 02:41:29;;;;;;;2.53;2.33;;;18.80;24.30;;;;;;5096260;28;20186;-54
2020/12/10 02:43:55;;;;;;;2.20;2.00;;;18.80;24.20;;;;;;5096421;28;20161;-54
2020/12/10 02:46:21;;;;;;;2.00;1.90;;;18.80;24.20;;;;;;5096349;28;20540;-53
2020/12/10 02:48:47;;;;;;;2.23;2.03;;;18.80;24.20;;;;;;5096254;28;20241;-54
2020/12/10 02:51:12;;;;;;;2.93;2.40;;;18.80;24.20;;;;;;5095618;28;20162;-54
2020/12/10 02:53:39;;;;;;;2.47;2.17;;;18.80;24.30;;;;;;5096334;28;20821;-54
2020/12/10 02:56:13;;;;;;;3.00;2.75;;;18.80;24.20;;;;;;5096170;28;20464;-53
2020/12/10 02:58:40;;;;;;;2.78;2.58;;;18.80;24.20;;;;;;5096134;28;20157;-53
2020/12/10 03:01:07;;;;;;;2.45;2.25;;;18.80;24.20;;;;;;5095961;28;20150;-53
2020/12/10 03:03:32;;;;;;;2.10;1.90;;;18.80;24.30;;;;;;5096111;28;20503;-53
2020/12/10 03:05:58;;;;;;;2.10;1.90;;;18.80;24.80;;;;;;5095359;28;20719;-53
2020/12/10 03:08:24;;;;;;;2.17;2.00;;;18.80;24.20;;;;;;5096185;28;20165;-53
2020/12/10 03:10:52;;;;;;;2.37;2.17;;;18.80;24.30;;;;;;5095509;28;20158;-53
2020/12/10 03:13:18;;;;;;;2.53;2.33;;;18.80;24.20;;;;;;5095835;28;20371;-53
2020/12/10 03:15:47;;;;;;;2.65;2.45;;;18.80;24.30;;;;;;5095707;28;20189;-53
2020/12/10 03:18:12;;;;;;;1.88;1.77;;;18.80;24.30;;;;;;5095222;28;20204;-53
2020/12/10 03:20:38;;;;;;;2.43;2.30;;;18.80;24.30;;;;;;5076667;28;20523;-53
2020/12/10 03:23:04;;;;;;;3.17;2.47;;;18.80;24.30;;;;;;5095785;28;20185;-53
2020/12/10 03:25:30;;;;;;;2.15;1.90;;;18.80;24.30;;;;;;5095514;28;20164;-54
2020/12/10 03:27:56;;;;;;;2.47;2.28;;;18.80;24.30;;;;;;5095545;28;20153;-54
2020/12/10 03:30:22;;;;;;;2.67;2.17;;;18.80;24.30;;;;;;5095315;28;20536;-54
2020/12/10 03:32:47;;;;;;;3.10;2.80;;;18.80;24.30;;;;;;5095532;28;20609;-52
2020/12/10 03:35:13;;;;;;;2.83;2.27;;;18.80;24.30;;;;;;5094998;28;20549;-53
2020/12/10 03:37:39;;;;;;;3.00;2.40;;;18.70;24.20;;;;;;5095265;28;20154;-53
2020/12/10 03:40:05;;;;;;;2.78;2.58;;;18.80;24.30;;;;;;5095288;28;20158;-54
2020/12/10 03:42:31;;;;;;;1.73;1.63;;;18.80;24.30;;;;;;5095089;28;20189;-53
2020/12/10 03:44:57;;;;;;;3.05;2.25;;;18.80;24.30;;;;;;5095302;28;20655;-53
2020/12/10 03:47:22;;;;;;;2.33;2.13;;;18.80;24.80;;;;;;5095131;28;20189;-54
2020/12/10 03:49:49;;;;;;;2.70;2.53;;;18.80;24.30;;;;;;5094945;28;20200;-53
2020/12/10 03:52:15;;;;;;;3.05;2.10;;;18.80;24.30;;;;;;5076383;28;20177;-53
2020/12/10 03:54:41;;;;;;;2.70;2.47;;;18.80;24.20;;;;;;5095097;28;20184;-53
2020/12/10 03:57:07;;;;;;;2.50;2.30;;;18.80;24.30;;;;;;5094923;28;20632;-53
2020/12/10 03:59:32;;;;;;;2.43;2.23;;;18.80;24.30;;;;;;5095027;28;20636;-53
2020/12/10 04:01:58;;;;;;;2.27;2.03;;;18.80;24.20;;;;;;5094687;28;20211;-53
2020/12/10 04:04:24;;;;;;;2.17;2.07;;;18.80;24.20;;;;;;5094796;28;20162;-53
2020/12/10 04:06:49;;;;;;;2.10;1.97;;;18.80;24.20;;;;;;5094108;28;20217;-53
2020/12/10 04:09:15;;;;;;;1.93;1.80;;;18.80;24.30;;;;;;5094974;28;20165;-54
2020/12/10 04:11:40;;;;;;;2.70;2.10;;;18.80;24.20;;;;;;5094663;28;20606;-52
2020/12/10 04:14:06;;;;;;;1.90;1.80;;;18.80;24.30;;;;;;5094820;28;20165;-54
2020/12/10 04:16:32;;;;;;;2.13;1.92;;;18.80;24.20;;;;;;5094530;28;20157;-54
2020/12/10 04:18:58;;;;;;;1.80;1.60;;;18.80;24.20;;;;;;5094325;28;20169;-54
2020/12/10 04:21:24;;;;;;;2.50;2.30;;;18.80;24.30;;;;;;5093793;28;20407;-55
2020/12/10 04:23:49;;;;;;;2.63;2.43;;;18.80;24.80;;;;;;5094669;28;20237;-53
2020/12/10 04:26:16;;;;;;;2.33;2.13;;;18.80;24.30;;;;;;5094484;28;20612;-54
2020/12/10 04:28:44;;;;;;;1.88;1.77;;;18.80;24.30;;;;;;5094113;28;20158;-54
2020/12/10 04:31:11;;;;;;;2.25;2.05;;;18.80;24.30;;;;;;5094013;28;20249;-54
2020/12/10 04:33:37;;;;;;;2.40;2.20;;;18.80;24.30;;;;;;5094303;28;20252;-54
2020/12/10 04:36:04;;;;;;;2.17;2.00;;;18.80;24.30;;;;;;5075615;28;20165;-53
2020/12/10 04:38:31;;;;;;;2.22;2.03;;;18.80;24.30;;;;;;5093961;28;20149;-53
2020/12/10 04:41:00;;;;;;;2.30;2.13;;;18.80;24.30;;;;;;5093994;28;20160;-53
2020/12/10 04:43:26;;;;;;;2.08;1.88;;;18.80;24.30;;;;;;5094106;28;20189;-53
2020/12/10 04:46:04;;;;;;;2.13;1.95;;;18.80;24.40;;;;;;5094062;28;20162;-53
2020/12/10 04:48:33;;;;;;;2.28;1.90;;;18.80;24.30;;;;;;5094422;28;20240;-53
2020/12/10 04:51:03;;;;;;;1.85;1.75;;;18.80;24.30;;;;;;5093491;28;20241;-53
2020/12/10 04:53:29;;;;;;;2.30;2.10;;;18.80;24.40;;;;;;5094198;28;20234;-53
2020/12/10 04:55:57;;;;;;;2.57;2.37;;;18.80;24.30;;;;;;5093805;28;20662;-53
2020/12/10 04:58:22;;;;;;;2.00;1.90;;;18.80;24.30;;;;;;5094024;28;20438;-53
2020/12/10 05:00:58;;;;;;;1.93;1.83;;;18.80;24.30;;;;;;5093825;28;20219;-53
2020/12/10 05:03:23;;;;;;;2.08;1.98;;;18.80;24.30;;;;;;5094065;28;20537;-53
2020/12/10 05:05:49;;;;;;;2.40;2.20;;;18.80;24.30;;;;;;5093132;28;20677;-53
2020/12/10 05:08:27;;;;;;;1.93;1.83;;;18.80;24.30;;;;;;5093937;28;20165;-53
2020/12/10 05:10:53;;;;;;;2.17;1.98;;;18.80;24.30;;;;;;5093809;28;20211;-55
2020/12/10 05:13:18;;;;;;;1.93;1.83;;;18.80;24.30;;;;;;5093816;28;20189;-55
2020/12/10 05:15:44;;;;;;;2.20;1.97;;;18.80;24.30;;;;;;5093362;28;20173;-56
2020/12/10 05:18:16;;;;;;;1.87;1.77;;;18.90;24.30;;;;;;5093825;28;20165;-54
2020/12/10 05:20:49;;;;;;;2.10;1.90;;;18.90;24.30;;;;;;5093120;28;20609;-53
2020/12/10 05:23:29;;;;;;;2.97;2.67;;;18.80;24.20;;;;;;5093792;28;20189;-53
2020/12/10 05:25:55;;;;;;;2.05;1.90;;;18.90;24.30;;;;;;5093575;28;20651;-53
2020/12/10 05:28:23;;;;;;;2.30;2.10;;;18.90;24.30;;;;;;5093584;28;20150;-53
2020/12/10 05:31:09;;;;;;;4.32;1.52;;;18.90;24.30;;;;;;5093372;28;20153;-53
2020/12/10 05:33:35;;;;;;;2.53;1.90;;;18.90;24.30;;;;;;5093547;28;20173;-53
2020/12/10 05:36:07;;;;;;;2.45;2.25;;;18.90;24.30;;;;;;5093089;28;20150;-53
2020/12/10 05:38:33;;;;;;;2.20;2.10;;;18.90;24.30;;;;;;5093406;28;20176;-53
2020/12/10 05:41:21;;;;;;;2.37;2.17;;;18.90;24.30;;;;;;5094851;28;20146;-53
2020/12/10 05:43:48;;;;;;;2.03;1.92;;;18.90;24.30;;;;;;5097584;28;20237;-53
2020/12/10 05:46:16;;;;;;;2.47;2.28;;;18.90;24.30;;;;;;5097228;28;20196;-53
2020/12/10 05:48:46;;;;;;;1.60;1.50;;;18.90;24.20;;;;;;5097540;28;20157;-54
2020/12/10 05:51:20;;;;;;;2.20;2.00;;;18.90;24.20;;;;;;5096806;28;20176;-53
2020/12/10 05:53:47;;;;;;;2.38;1.88;;;18.90;24.20;;;;;;5097433;28;20149;-53
2020/12/10 05:56:14;;;;;;;2.15;2.05;;;18.90;24.20;;;;;;5097119;28;20595;-53
2020/12/10 05:58:48;;;;;;;2.53;2.33;;;18.90;24.20;;;;;;5097361;28;20245;-53
2020/12/10 06:01:32;;;;;;;1.88;1.73;;;18.90;24.20;;;;;;5096804;28;20184;-53
2020/12/10 06:03:58;;;;;;;2.00;1.90;;;19.00;24.80;;;;;;5097126;28;20203;-53
2020/12/10 06:06:26;;;;;;;2.37;2.17;;;18.90;24.20;;;;;;5096385;28;20221;-53
2020/12/10 06:09:04;;;;;;;1.63;1.52;;;19.00;24.30;;;;;;5097003;28;20403;-53
2020/12/10 06:11:31;;;;;;;1.77;1.38;;;19.00;24.30;;;;;;5096643;28;20505;-53
2020/12/10 06:14:02;;;;;;;2.47;1.98;;;19.00;24.30;;;;;;5096817;28;20199;-54
2020/12/10 06:16:28;;;;;;;2.47;2.28;;;19.00;24.20;;;;;;5078549;28;20158;-53
2020/12/10 06:19:05;;;;;;;1.60;1.50;;;19.00;24.20;;;;;;5097146;28;20289;-54
2020/12/10 06:21:36;;;;;;;2.25;2.15;;;19.00;24.20;;;;;;5096166;28;20257;-53
2020/12/10 06:24:24;;;;;;;3.10;2.47;;;19.00;24.20;;;;;;5097065;28;20198;-53
2020/12/10 06:26:53;;;;;;;1.80;1.70;;;19.00;24.20;;;;;;5096527;28;20211;-54
2020/12/10 06:29:28;;;;;;;2.22;2.05;;;19.00;24.20;;;;;;5096440;28;20158;-54
2020/12/10 06:32:07;;;;;;;2.40;2.20;;;19.00;24.70;;;;;;5096367;28;20191;-54
2020/12/10 06:34:38;;;;;;;3.95;2.58;;;19.00;24.20;;;;;;5078689;28;20161;-53
2020/12/10 06:37:17;;;;;;;2.50;2.30;;;19.00;24.10;;;;;;5096020;28;20162;-54
2020/12/10 06:39:42;;;;;;;2.28;2.10;;;19.00;24.10;;;;;;5096329;28;20161;-54
2020/12/10 06:42:08;;;;;;;1.90;1.80;;;19.00;24.10;;;;;;5096143;28;20178;-53
2020/12/10 06:44:35;;;;;;;2.00;1.90;;;19.00;24.10;;;;;;5096364;28;20414;-53
2020/12/10 06:47:01;;;;;;;1.70;1.60;;;19.00;24.10;;;;;;5096245;28;20150;-54
2020/12/10 06:49:29;;;;;;;1.85;1.75;;;19.10;24.20;;;;;;5096139;28;20196;-53
2020/12/10 06:52:18;;;;;;;1.95;1.85;;;19.10;24.20;;;;;;5095002;28;20632;-53
2020/12/10 06:55:04;;;;;;;2.08;1.98;;;19.00;24.10;;;;;;5096085;28;20173;-54
2020/12/10 06:57:48;;;;;;;1.95;1.80;;;19.10;24.20;;;;;;5095892;28;20245;-53
2020/12/10 07:00:51;;;;;;;2.13;1.98;;;19.10;24.20;;;;;;5095748;28;20173;-54
2020/12/10 07:03:29;;;;;;;2.20;1.90;;;19.00;24.10;;;;;;5095907;28;20185;-53
2020/12/10 07:05:55;;;;;;;2.30;1.83;;;19.10;24.20;;;;;;5095293;28;20259;-53
2020/12/10 07:08:22;;;;;;;1.77;1.67;;;19.10;24.10;;;;;;5095997;28;20609;-53
2020/12/10 07:10:50;;;;;;;1.52;1.42;;;19.10;24.10;;;;;;5095536;28;20154;-53
2020/12/10 07:13:18;;;;;;;1.80;1.70;;;19.10;24.10;;;;;;5095527;28;20162;-53
2020/12/10 07:15:50;;;;;;;2.50;2.30;;;19.10;24.10;;;;;;5095788;28;20182;-53
2020/12/10 07:18:18;;;;;;;4.43;2.78;;;19.10;24.10;;;;;;5095405;28;20547;-52
2020/12/10 07:20:44;;;;;;;17.67;15.98;;;18.10;15.80;;;;;;5068845;28;20227;-54
2020/12/10 07:23:10;;;;;;;18.43;16.63;;;17.50;15.70;;;;;;5094340;28;20189;-54
2020/12/10 07:25:36;;;;;;;18.60;16.80;;;16.40;17.40;;;;;;5093968;28;20218;-52
2020/12/10 07:28:01;;;;;;;22.03;17.70;;;15.20;17.30;;;;;;5094504;28;20601;-52
2020/12/10 07:30:30;;;;;;;21.53;19.33;;;15.10;17.60;;;;;;5093427;28;20237;-52
2020/12/10 07:32:59;;;;;;;20.73;18.50;;;14.40;18.40;;;;;;5094923;28;20150;-51
2020/12/10 07:35:34;;;;;;;21.00;18.80;;;13.90;18.70;;;;;;5094119;28;20166;-51
2020/12/10 07:38:11;;;;;;;23.35;18.00;;;13.50;19.30;;;;;;5094622;28;20160;-53
2020/12/10 07:40:36;;;;;;;18.90;16.45;;;13.20;19.50;;;;;;5093314;28;20153;-52
2020/12/10 07:43:03;;;;;;;16.70;14.73;;;12.90;20.60;;;;;;5094046;28;20201;-53
2020/12/10 07:45:29;;;;;;;16.05;13.85;;;13.10;22.20;;;;;;5094480;28;20626;-53
2020/12/10 07:48:03;;;;;;;15.97;14.30;;;13.40;22.70;;;;;;5094652;28;20162;-54
2020/12/10 07:50:31;;;;;;;14.40;12.48;;;13.70;22.80;;;;;;5093023;28;20138;-54
2020/12/10 07:52:58;;;;;;;14.65;13.20;;;14.00;22.60;;;;;;5093749;28;20624;-53
2020/12/10 07:55:28;;;;;;;15.15;12.50;;;14.50;22.30;;;;;;5093851;28;20193;-55
2020/12/10 07:58:11;;;;;;;12.77;11.30;;;15.10;21.20;;;;;;5070162;28;20634;-54
2020/12/10 08:00:38;;;;;;;14.63;11.45;;;15.20;24.10;;;;;;5045781;28;20629;-53
2020/12/10 08:03:05;;;;;;;13.82;10.10;;;15.50;20.70;;;;;;5059821;28;20226;-54
2020/12/10 08:05:31;;;;;;;14.48;10.15;;;;;;;;;;5066160;28;20176;-55
2020/12/10 08:07:58;;;;;;;9.90;9.00;;;16.20;20.50;;;;;;5063327;28;22108;-55
2020/12/10 08:10:32;;;;;;;10.35;8.40;;;16.30;21.00;;;;;;5049684;28;20522;-56
2020/12/10 08:13:11;;;;;;;9.00;7.38;;;16.60;21.10;;;;;;5069210;28;20188;-57
2020/12/10 08:15:39;;;;;;;9.73;7.15;;;16.80;20.80;;;;;;5059971;28;20914;-56
2020/12/10 08:18:06;;;;;;;7.60;6.80;;;17.00;20.80;;;;;;5068779;28;21393;-57
2020/12/10 08:20:44;;;;;;;8.27;6.75;;;17.20;20.80;;;;;;5051589;28;20645;-58
2020/12/10 08:23:11;;;;;;;7.90;6.65;;;17.40;21.30;;;;;;5066780;28;20193;-57
2020/12/10 08:25:38;;;;;;;6.40;5.78;;;17.60;21.60;;;;;;5064111;28;20189;-59
2020/12/10 08:28:08;;;;;;;8.43;5.82;;;17.70;21.70;;;;;;5061914;28;20871;-59
2020/12/10 08:30:35;;;;;;;6.95;5.15;;;17.90;21.30;;;;;;5050395;28;20166;-55
2020/12/10 08:33:02;;;;;;;5.47;4.93;;;18.00;21.30;;;;;;5071869;28;20822;-57
2020/12/10 08:35:38;;;;;;;5.68;5.18;;;18.10;21.30;;;;;;5061787;28;20173;-56
2020/12/10 08:38:04;;;;;;;6.13;5.20;;;18.10;21.20;;;;;;5067230;28;20673;-56
2020/12/10 08:40:30;;;;;;;6.10;5.47;;;18.20;21.20;;;;;;5056842;28;20197;-55
2020/12/10 08:43:06;;;;;;;6.83;5.43;;;18.30;21.20;;;;;;5059165;28;20293;-57
2020/12/10 08:45:34;;;;;;;5.50;5.00;;;18.30;21.20;;;;;;5068276;28;20165;-55
2020/12/10 08:48:03;;;;;;;5.20;4.70;;;18.40;21.30;;;;;;5061506;28;20209;-55
2020/12/10 08:50:29;;;;;;;7.30;5.35;;;18.40;20.90;;;;;;5050102;28;20235;-55
2020/12/10 08:52:58;;;;;;;5.38;4.88;;;18.50;20.80;;;;;;5067614;28;20174;-56
2020/12/10 08:55:24;;;;;;;6.60;4.55;;;18.50;20.70;;;;;;5063053;28;20641;-55
2020/12/10 08:57:50;;;;;;;5.65;4.72;;;18.60;20.70;;;;;;5062281;28;20185;-55
2020/12/10 09:00:16;;;;;;;4.77;4.37;;;19.80;21.50;;;;;;5049933;28;20207;-55
2020/12/10 09:02:42;;;;;;;4.57;4.18;;;18.60;20.70;;;;;;5066075;28;20235;-55
2020/12/10 09:05:08;;;;;;;4.53;3.67;;;18.70;21.00;;;;;;5044837;28;20173;-55
2020/12/10 09:07:33;;;;;;;4.73;4.33;;;18.70;21.30;;;;;;5070552;28;20459;-53
2020/12/10 09:10:02;;;;;;;4.73;4.30;;;18.70;21.40;;;;;;5041719;28;20209;-53
2020/12/10 09:12:28;;;;;;;4.18;3.40;;;18.80;21.50;;;;;;5047442;28;20192;-53
2020/12/10 09:14:54;;;;;;;5.30;3.90;;;18.80;21.60;;;;;;5066436;28;20181;-52
2020/12/10 09:17:19;;;;;;;4.33;3.80;;;18.80;21.70;;;;;;5052845;28;20248;-52
2020/12/10 09:19:45;;;;;;;6.13;4.37;;;18.80;21.60;;;;;;5037223;28;20193;-52
2020/12/10 09:22:11;;;;;;;5.43;4.60;;;18.90;21.80;;;;;;5063510;28;20201;-53
2020/12/10 09:24:37;;;;;;;4.80;4.30;;;18.90;21.80;;;;;;5040126;28;20185;-53
2020/12/10 09:27:06;;;;;;;6.03;4.10;;;18.90;21.70;;;;;;5066149;28;20189;-54
2020/12/10 09:29:33;;;;;;;3.58;3.28;;;18.90;21.70;;;;;;5046498;28;20172;-55
2020/12/10 09:32:00;;;;;;;4.65;4.22;;;19.00;22.10;;;;;;5069665;28;20585;-56
2020/12/10 09:34:25;;;;;;;4.47;4.07;;;19.00;22.20;;;;;;5065921;28;20244;-54
2020/12/10 09:36:51;;;;;;;4.10;3.80;;;19.00;22.20;;;;;;5063047;28;20169;-56
2020/12/10 09:39:17;;;;;;;5.60;4.23;;;19.10;22.20;;;;;;5040001;28;20212;-54
2020/12/10 09:41:43;;;;;;;5.20;4.27;;;19.10;22.00;;;;;;5063011;28;20599;-52
2020/12/10 09:44:10;;;;;;;3.92;3.63;;;19.20;22.10;;;;;;5063458;28;20173;-53
2020/12/10 09:46:36;;;;;;;7.20;3.60;;;19.20;21.80;;;;;;5070103;28;20651;-53
2020/12/10 09:49:02;;;;;;;5.40;4.90;;;19.30;21.40;;;;;;5047555;28;21557;-54
2020/12/10 09:51:36;;;;;;;4.20;3.15;;;19.30;21.80;;;;;;5056237;28;20878;-56
2020/12/10 09:54:08;;;;;;;5.82;4.03;;;19.30;21.80;;;;;;5066562;28;20162;-56
2020/12/10 09:59:25;;;;;;;5.88;3.47;;;19.30;21.80;;;;;;5045342;28;21071;-53
2020/12/10 10:01:51;;;;;;;4.55;3.63;;;19.30;21.90;;;;;;5067561;28;20229;-52
2020/12/10 10:04:17;;;;;;;4.17;3.87;;;19.30;21.90;;;;;;5063259;28;20269;-55
2020/12/10 10:06:43;;;;;;;5.33;3.87;;;19.30;22.10;;;;;;5058460;28;20225;-56
2020/12/10 10:09:10;;;;;;;3.90;3.60;;;19.40;22.10;;;;;;5052625;28;20401;-56
2020/12/10 10:11:36;;;;;;;5.45;3.78;;;19.40;22.20;;;;;;5067077;28;20180;-56
2020/12/10 10:14:02;;;;;;;3.60;3.30;;;19.40;22.20;;;;;;5062920;28;20532;-55
2020/12/10 10:16:31;;;;;;;3.40;3.10;;;19.40;22.30;;;;;;5065537;28;20451;-55
2020/12/10 10:18:59;;;;;;;4.15;3.75;;;19.40;22.20;;;;;;5051155;28;20646;-55
2020/12/10 10:21:27;;;;;;;3.70;3.40;;;19.40;22.20;;;;;;5044988;28;20292;-54
2020/12/10 10:23:53;;;;;;;4.07;3.67;;;19.40;22.10;;;;;;5021415;28;20170;-54
2020/12/10 10:26:19;;;;;;;3.65;3.35;;;19.40;22.00;;;;;;5063290;28;20196;-55
2020/12/10 10:28:47;;;;;;;3.93;3.57;;;19.50;22.30;;;;;;5048004;28;20161;-54
2020/12/10 10:31:13;;;;;;;3.90;3.60;;;19.50;22.30;;;;;;5068726;28;20394;-56
2020/12/10 10:33:39;;;;;;;3.70;3.37;;;19.50;22.30;;;;;;5061946;28;20181;-54
2020/12/10 10:36:05;;;;;;;4.73;3.30;;;19.50;22.30;;;;;;5067237;28;20438;-53
2020/12/10 10:38:31;;;;;;;7.50;3.60;;;18.30;21.50;;;;;;5043521;28;20178;-55
2020/12/10 10:40:57;;;;;;;3.78;3.38;;;19.30;22.20;;;;;;5051396;28;20173;-55
2020/12/10 10:43:23;;;;;;;3.97;3.43;;;19.50;22.40;;;;;;5038475;28;20271;-54
2020/12/10 10:45:48;;;;;;;4.27;3.87;;;19.50;22.50;;;;;;5055296;28;20174;-54
2020/12/10 10:48:14;;;;;;;4.20;3.83;;;19.50;22.50;;;;;;5047391;28;20177;-53
2020/12/10 10:50:40;;;;;;;10.00;3.50;;;19.50;22.50;;;;;;5025615;28;20549;-53
2020/12/10 10:53:06;;;;;;;4.27;2.90;;;19.50;22.50;;;;;;5059388;28;20556;-53
2020/12/10 10:55:31;;;;;;;3.50;3.20;;;19.50;22.50;;;;;;5057862;28;20664;-53
2020/12/10 10:57:57;;;;;;;4.13;3.80;;;19.60;22.50;;;;;;5055962;28;20513;-56
2020/12/10 11:00:22;;;;;;;4.20;3.90;;;19.60;22.60;;;;;;5032938;28;20182;-55
2020/12/10 11:02:48;;;;;;;5.37;3.10;;;19.60;22.50;;;;;;5056479;28;20704;-54
2020/12/10 11:05:14;;;;;;;3.90;3.53;;;19.60;22.50;;;;;;5055653;28;20169;-54
2020/12/10 11:07:41;;;;;;;5.40;3.43;;;19.60;22.60;;;;;;5065153;28;20323;-54
2020/12/10 11:10:08;;;;;;;3.50;3.15;;;19.60;23.10;;;;;;5042771;28;20174;-57
2020/12/10 11:12:34;;;;;;;5.00;4.50;;;19.60;22.60;;;;;;5050908;28;20238;-56
2020/12/10 11:15:00;;;;;;;3.42;3.10;;;19.60;22.70;;;;;;5037357;28;20187;-58
2020/12/10 11:17:26;;;;;;;4.17;3.07;;;19.60;22.70;;;;;;5060441;28;20182;-53
2020/12/10 11:19:51;;;;;;;3.80;3.40;;;19.60;22.80;;;;;;5035763;28;20629;-55
2020/12/10 11:22:17;;;;;;;4.67;3.27;;;19.60;22.90;;;;;;5067512;28;20731;-56
2020/12/10 11:24:46;;;;;;;4.17;3.77;;;19.70;23.10;;;;;;5052723;28;20422;-58
2020/12/10 11:27:12;;;;;;;3.38;3.08;;;19.70;23.20;;;;;;5059732;28;20398;-57
2020/12/10 11:29:38;;;;;;;3.30;2.93;;;19.70;23.10;;;;;;5043619;28;20189;-56
2020/12/10 11:32:04;;;;;;;7.30;3.20;;;19.70;23.30;;;;;;5057764;28;20435;-55
2020/12/10 11:34:30;;;;;;;3.70;3.40;;;19.70;23.40;;;;;;5053043;28;20185;-54
2020/12/10 11:36:56;;;;;;;4.97;3.57;;;19.70;23.40;;;;;;5060304;28;20177;-53
2020/12/10 11:39:22;;;;;;;5.18;3.42;;;19.70;24.00;;;;;;5039169;28;20438;-57
2020/12/10 11:41:48;;;;;;;3.27;2.97;;;19.70;23.10;;;;;;5050754;28;20816;-57
2020/12/10 11:44:16;;;;;;;3.33;3.03;;;19.80;23.10;;;;;;5065346;28;20854;-55
2020/12/10 11:46:42;;;;;;;3.33;2.63;;;19.70;23.10;;;;;;5051537;28;20233;-55
2020/12/10 11:49:08;;;;;;;3.37;3.10;;;19.70;22.90;;;;;;5038763;28;20176;-55
2020/12/10 11:51:34;;;;;;;3.50;3.20;;;19.70;22.90;;;;;;5058931;28;20162;-53
2020/12/10 11:54:00;;;;;;;6.78;3.58;;;19.70;23.00;;;;;;5053472;28;20198;-53
2020/12/10 11:56:26;;;;;;;3.67;3.37;;;19.70;23.00;;;;;;5053470;28;20315;-52
2020/12/10 11:58:52;;;;;;;8.80;2.97;;;19.70;23.10;;;;;;5036059;28;20430;-53
2020/12/10 12:01:17;;;;;;;5.43;3.57;;;19.70;23.00;;;;;;5053237;28;20173;-53
2020/12/10 12:03:43;;;;;;;8.03;3.50;;;19.70;23.00;;;;;;5064501;28;20255;-55
2020/12/10 12:06:09;;;;;;;6.77;3.10;;;19.70;23.60;;;;;;5051953;28;20221;-55
2020/12/10 12:08:35;;;;;;;3.90;3.38;;;19.70;23.00;;;;;;5032729;28;20204;-56
2020/12/10 12:11:02;;;;;;;4.60;3.45;;;19.70;23.20;;;;;;5052568;28;20239;-58
2020/12/10 12:13:31;;;;;;;3.38;2.95;;;19.70;23.60;;;;;;5053310;28;20180;-55
2020/12/10 12:15:57;;;;;;;4.35;3.50;;;19.70;23.90;;;;;;5059623;28;20201;-53
2020/12/10 12:18:26;;;;;;;4.97;3.50;;;19.70;24.00;;;;;;5055791;28;20201;-53
2020/12/10 12:20:52;;;;;;;8.32;3.35;;;19.70;24.10;;;;;;5058247;28;20174;-55
2020/12/10 12:23:17;;;;;;;6.23;4.00;;;19.70;24.40;;;;;;5054845;28;20204;-55
2020/12/10 12:25:43;;;;;;;3.33;3.03;;;19.70;24.40;;;;;;5050220;28;20255;-54
2020/12/10 12:28:09;;;;;;;3.57;3.30;;;19.70;24.40;;;;;;5051468;28;20169;-55
2020/12/10 12:30:38;;;;;;;4.50;3.03;;;19.70;24.30;;;;;;5046020;28;20528;-55
2020/12/10 12:33:03;;;;;;;4.03;3.63;;;19.70;24.20;;;;;;5054250;28;20185;-56
2020/12/10 12:35:30;;;;;;;3.77;3.27;;;19.70;24.10;;;;;;5031791;28;20287;-55
2020/12/10 12:37:56;;;;;;;3.38;3.08;;;19.70;24.10;;;;;;5063889;28;20182;-55
2020/12/10 12:40:22;;;;;;;3.88;2.95;;;19.70;24.00;;;;;;5043906;28;20324;-53
2020/12/10 12:42:48;;;;;;;5.23;3.40;;;19.70;24.00;;;;;;5055158;28;20240;-53
2020/12/10 12:45:14;;;;;;;4.80;3.70;;;19.70;24.00;;;;;;5052449;28;20423;-54
2020/12/10 12:47:43;;;;;;;4.22;3.90;;;19.70;24.00;;;;;;5063639;28;20173;-54
2020/12/10 12:50:09;;;;;;;3.47;3.15;;;19.70;24.00;;;;;;5031824;28;20598;-53